createdAt,value
2023-10-08T00:00:47.757Z,12.46
2023-10-08T00:05:53.865Z,10.92
2023-10-08T00:10:58.117Z,11.71
2023-10-08T00:16:11.566Z,12.19
2023-10-08T00:21:14.815Z,12.39
2023-10-08T00:26:20.884Z,11.61
2023-10-08T00:31:32.630Z,12.25
2023-10-08T00:36:36.175Z,12.23
2023-10-08T00:41:40.232Z,12.28
2023-10-08T00:46:52.654Z,11.10
2023-10-08T00:52:10.954Z,12.42
2023-10-08T00:57:23.662Z,10.34
2023-10-08T01:02:44.611Z,11.33
2023-10-08T01:07:50.793Z,12.06
2023-10-08T01:12:57.080Z,11.97
2023-10-08T01:18:02.768Z,12.00
2023-10-08T01:23:11.735Z,11.91
2023-10-08T01:28:33.019Z,11.45
2023-10-08T01:33:40.765Z,10.35
2023-10-08T01:38:44.185Z,11.41
2023-10-08T01:43:48.362Z,10.43
2023-10-08T01:48:55.520Z,10.76
2023-10-08T01:54:00.050Z,11.11
2023-10-08T01:59:03.385Z,9.95
2023-10-08T02:04:11.797Z,11.08
2023-10-08T02:09:16.563Z,10.86
2023-10-08T02:14:20.744Z,10.63
2023-10-08T02:19:31.349Z,11.17
2023-10-08T02:24:35.174Z,10.77
2023-10-08T02:29:41.949Z,10.32
2023-10-08T02:34:45.574Z,11.36
2023-10-08T02:39:50.439Z,9.64
2023-10-08T02:44:53.886Z,11.39
2023-10-08T02:49:57.222Z,10.73
2023-10-08T02:55:02.213Z,10.78
2023-10-08T03:00:06.310Z,10.40
2023-10-08T03:05:10.556Z,10.42
2023-10-08T03:10:20.563Z,10.37
2023-10-08T03:15:31.007Z,9.57
2023-10-08T03:20:40.438Z,9.66
2023-10-08T03:25:43.926Z,10.58
2023-10-08T03:30:51.823Z,10.03
2023-10-08T03:35:57.029Z,9.80
2023-10-08T03:41:09.174Z,10.13
2023-10-08T03:46:17.380Z,10.78
2023-10-08T03:51:24.408Z,10.84
2023-10-08T03:56:31.650Z,10.47
2023-10-08T04:01:36.745Z,10.25
2023-10-08T04:06:40.678Z,11.29
2023-10-08T04:11:55.258Z,11.35
2023-10-08T04:17:01.129Z,11.15
2023-10-08T04:22:05.631Z,9.16
2023-10-08T04:27:11.722Z,11.14
2023-10-08T04:32:23.252Z,11.08
2023-10-08T04:37:34.473Z,9.25
2023-10-08T04:42:42.872Z,9.95
2023-10-08T04:47:46.652Z,11.03
2023-10-08T04:53:00.378Z,9.63
2023-10-08T04:58:14.163Z,10.52
2023-10-08T05:03:18.211Z,10.66
2023-10-08T05:08:30.761Z,10.85
2023-10-08T05:13:36.973Z,10.42
2023-10-08T05:18:56.568Z,10.53
2023-10-08T05:24:15.550Z,10.33
2023-10-08T05:29:51.454Z,8.87
2023-10-08T05:35:15.444Z,10.78
2023-10-08T05:40:45.102Z,10.70
2023-10-08T05:46:08.696Z,11.22
2023-10-08T05:51:25.530Z,10.66
2023-10-08T05:56:43.935Z,11.07
2023-10-08T06:01:48.386Z,9.90
2023-10-08T06:07:11.626Z,10.91
2023-10-08T06:12:21.756Z,11.78
2023-10-08T06:17:59.250Z,10.79
2023-10-08T06:23:08.985Z,11.81
2023-10-08T06:28:22.161Z,10.95
2023-10-08T06:33:32.848Z,12.72
2023-10-08T06:38:37.142Z,11.79
2023-10-08T06:43:47.496Z,13.15
2023-10-08T06:48:51.228Z,12.50
2023-10-08T06:53:56.118Z,13.95
2023-10-08T06:59:01.073Z,14.27
2023-10-08T07:04:08.499Z,14.08
2023-10-08T07:09:24.360Z,15.07
2023-10-08T07:14:30.265Z,15.20
2023-10-08T07:19:40.092Z,15.72
2023-10-08T07:24:47.523Z,15.97
2023-10-08T07:29:51.397Z,16.90
2023-10-08T07:34:59.730Z,16.65
2023-10-08T07:40:10.241Z,17.31
2023-10-08T07:45:19.320Z,17.80
2023-10-08T07:50:22.858Z,17.92
2023-10-08T07:55:26.160Z,17.93
2023-10-08T08:00:32.754Z,17.84
2023-10-08T08:05:36.903Z,18.13
2023-10-08T08:10:40.497Z,18.10
2023-10-08T08:15:47.212Z,18.47
2023-10-08T08:20:53.523Z,19.03
2023-10-08T08:26:13.842Z,18.63
2023-10-08T08:31:20.108Z,19.27
2023-10-08T08:36:25.072Z,20.48
2023-10-08T08:41:30.960Z,21.14
2023-10-08T08:46:39.396Z,20.11
2023-10-08T08:51:44.701Z,21.55
2023-10-08T09:01:34.845Z,22.73
2023-10-08T09:06:48.512Z,22.32
2023-10-08T09:26:51.567Z,23.44
2023-10-08T09:41:25.730Z,24.50
2023-10-08T09:46:37.216Z,24.23
2023-10-08T09:56:31.466Z,25.01
2023-10-08T10:01:35.503Z,25.38
2023-10-08T10:13:43.224Z,25.24
2023-10-08T10:18:49.207Z,23.37
2023-10-08T10:23:53.371Z,24.81
2023-10-08T10:29:12.286Z,25.40
2023-10-08T10:34:20.957Z,24.58
2023-10-08T10:39:35.605Z,25.00
2023-10-08T10:44:38.987Z,25.69
2023-10-08T10:49:55.503Z,24.99
2023-10-08T10:55:16.255Z,23.84
2023-10-08T11:00:34.805Z,24.40
2023-10-08T11:05:41.224Z,24.27
2023-10-08T11:10:54.762Z,23.37
2023-10-08T11:16:00.120Z,24.67
2023-10-08T11:21:18.462Z,24.03
2023-10-08T11:26:33.937Z,24.18
2023-10-08T11:31:37.765Z,24.73
2023-10-08T11:36:55.176Z,24.49
2023-10-08T11:42:05.852Z,24.84
2023-10-08T11:47:23.179Z,23.74
2023-10-08T11:52:26.825Z,24.58
2023-10-08T11:57:33.019Z,24.93
2023-10-08T12:02:36.784Z,24.72
2023-10-08T12:07:41.906Z,24.12
2023-10-08T12:13:07.740Z,25.22
2023-10-08T12:18:15.351Z,24.86
2023-10-08T12:23:31.122Z,24.72
2023-10-08T12:28:36.132Z,24.50
2023-10-08T12:33:39.824Z,25.39
2023-10-08T12:38:45.490Z,25.00
2023-10-08T12:43:54.250Z,23.48
2023-10-08T12:48:58.394Z,23.62
2023-10-08T12:54:08.580Z,24.47
2023-10-08T12:59:22.529Z,23.66
2023-10-08T13:04:37.138Z,24.86
2023-10-08T13:09:40.844Z,25.16
2023-10-08T13:14:47.014Z,24.57
2023-10-08T13:19:50.498Z,24.88
2023-10-08T13:24:53.892Z,25.85
2023-10-08T13:29:57.850Z,25.53
2023-10-08T13:35:02.945Z,23.95
2023-10-08T13:40:07.990Z,24.90
2023-10-08T13:45:11.728Z,24.87
2023-10-08T13:50:15.242Z,24.91
2023-10-08T13:55:21.147Z,24.03
2023-10-08T14:00:28.344Z,23.52
2023-10-08T14:05:32.012Z,24.73
2023-10-08T14:10:35.476Z,23.48
2023-10-08T14:15:45.994Z,22.94
2023-10-08T14:20:52.122Z,23.28
2023-10-08T14:26:05.210Z,23.94
2023-10-08T14:31:09.896Z,24.13
2023-10-08T14:36:31.894Z,23.86
2023-10-08T14:41:53.709Z,23.87
2023-10-08T14:46:57.737Z,23.00
2023-10-08T14:52:01.611Z,21.76
2023-10-08T14:57:05.127Z,21.83
2023-10-08T15:02:08.909Z,23.52
2023-10-08T15:07:19.826Z,23.70
2023-10-08T15:12:23.965Z,23.53
2023-10-08T15:17:28.347Z,23.36
2023-10-08T15:22:32.346Z,23.38
2023-10-08T15:27:36.254Z,21.88
2023-10-08T15:32:47.857Z,22.07
2023-10-08T15:37:51.677Z,22.10
2023-10-08T15:42:57.152Z,21.52
2023-10-08T15:48:00.578Z,21.16
2023-10-08T15:53:04.181Z,20.87
2023-10-08T15:58:07.698Z,20.74
2023-10-08T16:03:11.877Z,20.20
2023-10-08T16:08:17.965Z,20.41
2023-10-08T16:13:21.472Z,20.02
2023-10-08T16:18:25.117Z,20.12
2023-10-08T16:23:31.269Z,18.44
2023-10-08T16:28:36.064Z,19.70
2023-10-08T16:33:40.053Z,19.74
2023-10-08T16:38:43.610Z,19.04
2023-10-08T16:43:47.479Z,19.76
2023-10-08T16:48:51.125Z,19.08
2023-10-08T16:53:54.640Z,17.80
2023-10-08T16:58:58.232Z,17.65
2023-10-08T17:04:01.780Z,18.02
2023-10-08T17:09:16.242Z,17.94
2023-10-08T17:14:20.296Z,18.33
2023-10-08T17:19:25.716Z,17.82
2023-10-08T17:24:30.344Z,17.46
2023-10-08T17:29:34.149Z,17.74
2023-10-08T17:34:38.058Z,16.31
2023-10-08T17:39:41.547Z,17.47
2023-10-08T17:44:45.245Z,16.90
2023-10-08T17:50:07.176Z,17.32
2023-10-08T17:55:14.902Z,16.45
2023-10-08T18:00:19.735Z,16.95
2023-10-08T18:05:28.675Z,16.14
2023-10-08T18:10:33.685Z,16.43
2023-10-08T18:15:37.599Z,15.10
2023-10-08T18:20:45.961Z,14.71
2023-10-08T18:25:49.473Z,16.13
2023-10-08T18:30:53.748Z,16.11
2023-10-08T18:36:05.114Z,15.84
2023-10-08T18:41:13.941Z,15.61
2023-10-08T18:46:17.855Z,15.04
2023-10-08T18:51:22.382Z,15.59
2023-10-08T18:56:25.814Z,14.26
2023-10-08T19:01:30.690Z,14.39
2023-10-08T19:06:34.151Z,15.99
2023-10-08T19:11:40.424Z,15.68
2023-10-08T19:16:48.944Z,15.76
2023-10-08T19:21:54.193Z,16.03
2023-10-08T19:26:57.826Z,14.32
2023-10-08T19:32:01.530Z,15.34
2023-10-08T19:37:06.574Z,15.65
2023-10-08T19:42:10.316Z,15.88
2023-10-08T19:47:16.291Z,15.68
2023-10-08T19:52:20.139Z,13.85
2023-10-08T19:57:28.593Z,14.54
2023-10-08T20:02:32.102Z,15.05
2023-10-08T20:07:35.691Z,15.59
2023-10-08T20:12:40.789Z,15.37
2023-10-08T20:17:46.314Z,15.19
2023-10-08T20:22:51.867Z,15.60
2023-10-08T20:27:55.633Z,15.34
2023-10-08T20:32:59.481Z,14.99
2023-10-08T20:38:05.336Z,15.25
2023-10-08T20:43:08.861Z,14.60
2023-10-08T20:48:15.949Z,14.34
2023-10-08T20:53:19.517Z,12.94
2023-10-08T20:58:27.018Z,15.10
2023-10-08T21:03:30.648Z,14.85
2023-10-08T21:08:34.189Z,14.81
2023-10-08T21:13:37.898Z,14.47
2023-10-08T21:18:41.449Z,13.81
2023-10-08T21:23:46.239Z,13.77
2023-10-08T21:28:50.084Z,13.08
2023-10-08T21:33:53.679Z,14.22
2023-10-08T21:38:57.786Z,14.06
2023-10-08T21:44:01.253Z,14.42
2023-10-08T21:49:04.938Z,12.79
2023-10-08T21:54:08.953Z,13.48
2023-10-08T21:59:12.653Z,14.09
2023-10-08T22:04:18.358Z,13.04
2023-10-08T22:09:30.028Z,14.79
2023-10-08T22:14:35.035Z,14.71
2023-10-08T22:19:44.702Z,14.32
2023-10-08T22:24:50.156Z,14.40
2023-10-08T22:29:53.884Z,14.98
2023-10-08T22:35:11.003Z,13.12
2023-10-08T22:40:19.626Z,15.23
2023-10-08T22:45:29.796Z,15.39
2023-10-08T22:50:43.440Z,16.04
2023-10-08T22:55:46.992Z,17.16
2023-10-08T23:00:51.583Z,16.09
2023-10-08T23:05:55.748Z,17.05
2023-10-08T23:10:59.228Z,17.68
2023-10-08T23:16:06.824Z,16.36
2023-10-08T23:21:13.570Z,17.43
2023-10-08T23:26:20.947Z,17.40
2023-10-08T23:31:24.966Z,15.93
2023-10-08T23:36:35.673Z,17.03
2023-10-08T23:41:51.768Z,14.97
2023-10-08T23:47:12.006Z,16.79
2023-10-08T23:52:24.143Z,16.66
2023-10-08T23:57:46.935Z,16.13
